Flight Track Log - Related Links

Times and Time Zones

All times are in EDT time to prevent confusion due to time zone crossing. See the RPA3228 flight status page for this flight to view local times or setup timezone preferences in your user account.

Time Position Orientation Groundspeed Altitude Reporting Facility
EDT Latitude Longitude Course Direction KTS MPH feet Rate Location/Type
Wed 11:08:58 AM 38.7983 -77.0328 90° East 168 193 2,000  Level Washington Center
Wed 11:09:59 AM 38.7508 -77.0078 158° South 193 222 4,000 2,471 Climbing Washington Center
Wed 11:10:00 AM 38.9542 -76.7207 67° East  Level FlightAware Approximate
Wed 11:10:57 AM 38.7603 -76.9094 83° East 190 219 6,900  Level Washington Center
Wed 11:11:00 AM 38.9947 -76.6160 67° East  Level FlightAware Approximate
Wed 11:11:57 AM 38.7800 -76.8006 77° East 230 265 9,800  Level Washington Center
Wed 11:12:00 AM 39.0354 -76.5114 63° Northeast  Level FlightAware Approximate
Wed 11:12:58 AM 38.8556 -76.7511 27° Northeast 241 277 12,400  Level Washington Center
Wed 11:13:00 AM 39.0778 -76.4074 61° Northeast  Level FlightAware Approximate
Wed 11:13:59 AM 38.9372 -76.7125 20° North 268 308 15,300  Level Washington Center
Wed 11:14:00 AM 39.1167 -76.3028 90° East  Level FlightAware Approximate
Wed 11:14:57 AM 38.9925 -76.6119 55° Northeast 306 352 17,600  Level Washington Center
Wed 11:15:57 AM 39.0433 -76.4869 62° Northeast 349 402 19,600 2,182 Climbing Washington Center
Wed 11:16:58 AM 39.0922 -76.3617 63° Northeast 357 411 22,000 1,686 Climbing Washington Center
Wed 11:17:58 AM 39.1431 -76.2367 62° Northeast 379 436 23,000 496 Climbing Washington Center
Wed 11:18:59 AM 39.1708 -76.0869 76° East 403 464 23,000  Level Washington Center
Wed 11:19:57 AM 39.1858 -75.9397 82° East 414 476 23,000 458 Level Washington Center
Wed 11:20:57 AM 39.2403 -75.8194 60° Northeast 382 440 23,900 1,289 Climbing Washington Center
Wed 11:21:58 AM 39.3197 -75.7150 45° Northeast 392 451 25,600 1,636 Climbing Washington Center
Wed 11:22:58 AM 39.4031 -75.6103 44° Northeast 397 457 27,200 1,587 Climbing Washington Center
Wed 11:23:59 AM 39.4864 -75.5028 45° Northeast 409 471 28,800 1,488 Climbing Washington Center
Wed 11:24:59 AM 39.5675 -75.3950 46° Northeast 409 471 30,200 1,333 Climbing Washington Center
Wed 11:25:56 AM 39.6506 -75.2842 46° Northeast 414 476 31,400 1,050 Climbing Washington Center
Wed 11:26:19 AM 39.6806 -75.2458 45° Northeast 430 495 31,600 1,071 Climbing New York Center
Wed 11:27:20 AM 39.7492 -75.1394 50° Northeast 413 475 32,900 712 Climbing New York Center
Wed 11:28:17 AM 39.8325 -75.0258 46° Northeast 423 487 33,000 51 Climbing New York Center
Wed 11:29:18 AM 39.9094 -74.9142 48° Northeast 423 487 33,000  Level New York Center
Wed 11:30:18 AM 40.0036 -74.7842 47° Northeast 435 501 33,000  Level New York Center
Wed 11:31:18 AM 40.0922 -74.6889 39° Northeast 422 486 33,000  Level New York Center
Wed 11:32:19 AM 40.1956 -74.6567 13° North 376 433 33,000  Level New York Center
Wed 11:33:19 AM 40.3008 -74.6244 13° North 381 438 33,000  Level New York Center
Wed 11:35:17 AM 40.5114 -74.5572 14° North 381 438 33,000  Level New York Center
Wed 11:36:18 AM 40.6125 -74.5217 15° North 376 433 33,000  Level New York Center
Wed 11:37:56 AM 40.7733 -74.4681 14° North 396 456 33,000  Level Boston Center
Wed 11:38:56 AM 40.8781 -74.4358 13° North 391 450 33,000  Level Boston Center
Wed 11:39:56 AM 40.9953 -74.3981 14° North 391 450 33,000  Level Boston Center
Wed 11:40:56 AM 41.0875 -74.3706 13° North 391 450 33,000  Level Boston Center
Wed 11:41:56 AM 41.1944 -74.3353 14° North 386 444 33,000  Level Boston Center
Wed 11:42:56 AM 41.3097 -74.2917 16° North 392 451 33,000  Level Boston Center
Wed 11:43:56 AM 41.4208 -74.2561 13° North 392 451 33,000  Level Boston Center
Wed 11:44:56 AM 41.5278 -74.2203 14° North 397 457 33,000  Level Boston Center
Wed 11:45:56 AM 41.6261 -74.1897 13° North 402 463 33,000  Level Boston Center
Wed 11:46:56 AM 41.7350 -74.1511 15° North 402 463 33,000  Level Boston Center
Wed 11:47:56 AM 41.8419 -74.1206 12° North 390 449 33,000  Level Boston Center
Wed 11:48:56 AM 41.9531 -74.0817 15° North 395 455 33,000  Level Boston Center
Wed 11:49:56 AM 42.0619 -74.0453 14° North 400 460 33,000  Level Boston Center
Wed 11:50:56 AM 42.1728 -74.0061 15° North 400 460 33,000  Level Boston Center
Wed 11:51:56 AM 42.2839 -73.9667 15° North 400 460 33,000  Level Boston Center
Wed 11:52:56 AM 42.3928 -73.9272 15° North 400 460 33,000  Level Boston Center
Wed 11:53:56 AM 42.5058 -73.8906 13° North 400 460 33,000  Level Boston Center
Wed 11:54:56 AM 42.6147 -73.8450 17° North 400 460 33,000  Level Boston Center
Wed 11:55:56 AM 42.7236 -73.8050 15° North 395 455 33,000  Level Boston Center
Wed 11:57:08 AM 42.8325 -73.7650 15° North 400 460 33,000  Level Boston Center
Wed 11:58:08 AM 42.9664 -73.7169 15° North 394 453 33,000 -400 Level Boston Center
Wed 11:59:08 AM 43.0731 -73.6794 14° North 399 459 32,200 -1,300 Descending Boston Center
Wed 12:00:08 PM 43.1944 -73.6306 16° North 399 459 30,400 -1,650 Descending Boston Center
Wed 12:01:08 PM 43.3011 -73.5928 14° North 399 459 28,900 -1,500 Descending Boston Center
Wed 12:02:08 PM 43.4058 -73.5517 16° North 399 459 27,400 -1,500 Descending Boston Center
Wed 12:03:08 PM 43.5083 -73.5136 15° North 388 447 25,900 -1,500 Descending Boston Center
Wed 12:04:08 PM 43.6086 -73.4808 13° North 381 438 24,400 -1,450 Descending Boston Center
Wed 12:05:08 PM 43.7047 -73.4453 15° North 363 418 23,000 -1,600 Descending Boston Center
Wed 12:06:08 PM 43.7989 -73.4094 15° North 353 406 21,200 -1,900 Descending Boston Center
Wed 12:07:08 PM 43.8928 -73.3736 15° North 343 395 19,200 -2,050 Descending Boston Center
Wed 12:08:08 PM 43.9828 -73.3403 15° North 335 386 17,100 -2,050 Descending Boston Center
Wed 12:09:08 PM 44.0664 -73.3069 16° North 329 379 15,100 -1,950 Descending Boston Center
Wed 12:10:08 PM 44.1478 -73.2908 North 301 346 13,200 -1,950 Descending Boston Center
Wed 12:11:08 PM 44.2247 -73.3092 350° North 280 322 11,200 -2,000 Descending Boston Center
Wed 12:12:08 PM 44.3036 -73.3306 349° North 280 322 9,200 -2,150 Descending Boston Center
Wed 12:13:08 PM 44.3744 -73.3550 346° North 280 322 6,900 -2,000 Descending Boston Center
Wed 12:14:08 PM 44.4450 -73.3678 353° North 280 322 5,200 -2,100 Descending Boston Center
Wed 12:15:08 PM 44.5167 -73.2903 38° Northeast 262 302 2,700 -1,800 Descending Boston Center
Wed 12:16:08 PM 44.5211 -73.2319 84° East 171 197 1,600 -900 Descending Boston Center
Wed 12:17:08 PM 44.4964 -73.1967 134° Southeast 127 146 900 -200 Descending Boston Center
Wed 12:18:08 PM 44.4758 -73.1586 127° Southeast 117 135 1,200 550 Climbing Boston Center
Wed 12:19:08 PM 44.4444 -73.1611 183° South 128 147 2,000 750 Climbing Boston Center
Wed 12:20:08 PM 44.4483 -73.2281 275° West 103 119 2,700 700 Climbing Boston Center

Login

Don't have an account? Register now (free) for customized features, flight alerts, and more!